createdAt,value
2022-09-23T00:00:59.708Z,89.33
2022-09-23T00:03:28.186Z,89.56
2022-09-23T00:05:59.315Z,89.59
2022-09-23T00:08:25.850Z,89.82
2022-09-23T00:10:52.413Z,90.14
2022-09-23T00:13:18.845Z,90.09
2022-09-23T00:15:46.760Z,90.67
2022-09-23T00:18:13.231Z,91.28
2022-09-23T00:20:40.434Z,91.33
2022-09-23T00:23:06.878Z,91.53
2022-09-23T00:25:33.727Z,91.37
2022-09-23T00:28:00.150Z,91.49
2022-09-23T00:30:27.238Z,91.50
2022-09-23T00:32:53.700Z,92.06
2022-09-23T00:35:20.246Z,91.79
2022-09-23T00:37:46.636Z,92.93
2022-09-23T00:40:13.249Z,92.90
2022-09-23T00:42:47.429Z,91.84
2022-09-23T00:45:14.026Z,91.70
2022-09-23T00:47:45.887Z,92.00
2022-09-23T00:50:30.112Z,91.80
2022-09-23T00:52:59.321Z,92.55
2022-09-23T00:55:30.513Z,92.46
2022-09-23T00:58:00.630Z,92.52
2022-09-23T01:00:27.086Z,93.02
2022-09-23T01:02:54.254Z,92.92
2022-09-23T01:05:21.046Z,93.84
2022-09-23T01:07:48.124Z,92.49
2022-09-23T01:10:16.828Z,92.93
2022-09-23T01:13:08.247Z,93.04
2022-09-23T01:15:49.795Z,92.75
2022-09-23T01:18:42.733Z,93.34
2022-09-23T01:21:23.840Z,93.52
2022-09-23T01:24:15.391Z,92.58
2022-09-23T01:27:09.852Z,92.83
2022-09-23T01:29:54.887Z,93.56
2022-09-23T01:32:42.617Z,93.49
2022-09-23T01:35:24.863Z,94.04
2022-09-23T01:38:01.117Z,93.57
2022-09-23T01:40:55.317Z,93.79
2022-09-23T01:43:28.200Z,93.78
2022-09-23T01:45:59.812Z,93.71
2022-09-23T01:48:41.088Z,93.52
2022-09-23T01:51:17.391Z,94.03
2022-09-23T01:53:51.154Z,94.62
2022-09-23T01:56:28.802Z,95.18
2022-09-23T01:59:05.976Z,94.29
2022-09-23T02:05:59.239Z,94.10
2022-09-23T02:08:28.444Z,95.57
2022-09-23T02:11:00.462Z,93.49
2022-09-23T02:13:33.686Z,94.29
2022-09-23T02:16:08.531Z,94.66
2022-09-23T02:18:46.059Z,94.86
2022-09-23T02:21:14.347Z,95.03
2022-09-23T02:23:50.485Z,96.21
2022-09-23T02:26:26.082Z,95.04
2022-09-23T02:29:17.172Z,96.24
2022-09-23T02:31:54.775Z,96.76
2022-09-23T02:34:46.160Z,96.79
2022-09-23T02:37:43.521Z,96.03
2022-09-23T02:40:29.723Z,96.22
2022-09-23T02:43:05.985Z,96.47
2022-09-23T02:45:33.696Z,95.73
2022-09-23T02:48:19.341Z,95.18
2022-09-23T02:50:47.640Z,94.81
2022-09-23T02:53:16.123Z,95.21
2022-09-23T02:55:42.796Z,96.08
2022-09-23T02:58:12.798Z,94.65
2022-09-23T03:00:57.494Z,95.60
2022-09-23T03:03:37.660Z,94.95
2022-09-23T03:06:15.420Z,95.71
2022-09-23T03:08:51.000Z,94.97
2022-09-23T03:11:18.038Z,94.88
2022-09-23T03:13:54.059Z,94.63
2022-09-23T03:16:32.775Z,95.03
2022-09-23T03:19:07.230Z,95.55
2022-09-23T03:21:43.443Z,95.84
2022-09-23T03:24:14.289Z,95.89
2022-09-23T03:26:45.728Z,96.72
2022-09-23T03:29:14.394Z,96.55
2022-09-23T03:31:42.501Z,97.10
2022-09-23T03:34:16.175Z,96.23
2022-09-23T03:36:51.662Z,95.85
2022-09-23T03:39:32.838Z,96.41
2022-09-23T03:42:05.208Z,96.69
2022-09-23T03:44:39.603Z,96.02
2022-09-23T03:47:06.442Z,96.31
2022-09-23T03:49:37.202Z,96.40
2022-09-23T03:52:03.613Z,95.98
2022-09-23T03:54:30.219Z,95.99
2022-09-23T03:56:57.703Z,95.88
2022-09-23T03:59:24.948Z,96.93
2022-09-23T04:01:52.204Z,97.15
2022-09-23T04:04:18.754Z,96.49
2022-09-23T04:06:45.981Z,96.50
2022-09-23T04:09:13.105Z,96.52
2022-09-23T04:11:39.478Z,96.65
2022-09-23T04:14:06.010Z,96.83
2022-09-23T04:16:32.469Z,97.72
2022-09-23T04:18:58.973Z,95.98
2022-09-23T04:21:25.645Z,97.69
2022-09-23T04:23:51.982Z,97.31
2022-09-23T04:26:19.101Z,97.92
2022-09-23T04:28:45.455Z,97.10
2022-09-23T04:31:11.817Z,97.85
2022-09-23T04:33:38.368Z,97.97
2022-09-23T04:36:04.904Z,97.76
2022-09-23T04:38:31.440Z,97.63
2022-09-23T04:40:57.766Z,97.67
2022-09-23T04:43:24.291Z,97.70
2022-09-23T04:46:04.708Z,96.92
2022-09-23T04:48:31.729Z,96.34
2022-09-23T04:51:04.577Z,96.60
2022-09-23T04:53:31.612Z,95.91
2022-09-23T04:56:03.056Z,95.98
2022-09-23T04:58:29.819Z,96.04
2022-09-23T05:01:01.746Z,96.68
2022-09-23T05:03:35.613Z,96.54
2022-09-23T05:06:02.065Z,95.84
2022-09-23T05:08:28.760Z,95.06
2022-09-23T05:10:59.708Z,95.15
2022-09-23T05:13:26.243Z,94.95
2022-09-23T05:16:04.943Z,95.67
2022-09-23T05:18:32.567Z,96.31
2022-09-23T05:20:59.502Z,96.98
2022-09-23T05:23:27.100Z,96.60
2022-09-23T05:25:59.029Z,96.33
2022-09-23T05:28:28.056Z,96.22
2022-09-23T05:31:05.477Z,96.92
2022-09-23T05:33:33.171Z,95.70
2022-09-23T05:36:00.810Z,96.12
2022-09-23T05:38:31.114Z,95.95
2022-09-23T05:40:59.321Z,95.13
2022-09-23T05:43:26.572Z,94.94
2022-09-23T05:46:08.367Z,95.20
2022-09-23T05:48:36.096Z,95.53
2022-09-23T05:51:03.556Z,94.60
2022-09-23T05:53:30.654Z,94.59
2022-09-23T05:55:57.743Z,95.49
2022-09-23T05:58:25.156Z,94.99
2022-09-23T06:00:52.026Z,95.30
2022-09-23T06:03:21.114Z,94.91
2022-09-23T06:05:48.390Z,94.11
2022-09-23T06:08:15.075Z,92.90
2022-09-23T06:10:43.753Z,93.31
2022-09-23T06:13:11.081Z,94.28
2022-09-23T06:15:38.053Z,93.94
2022-09-23T06:18:05.536Z,93.45
2022-09-23T06:20:33.372Z,94.56
2022-09-23T06:23:10.472Z,94.06
2022-09-23T06:25:40.827Z,92.08
2022-09-23T06:28:10.727Z,92.48
2022-09-23T06:30:37.229Z,91.25
2022-09-23T06:33:03.593Z,89.91
2022-09-23T06:35:32.425Z,90.36
2022-09-23T06:37:59.036Z,89.55
2022-09-23T06:40:25.678Z,90.81
2022-09-23T06:42:59.586Z,90.09
2022-09-23T06:45:27.040Z,89.28
2022-09-23T06:47:57.893Z,89.23
2022-09-23T06:50:27.725Z,88.25
2022-09-23T06:52:56.203Z,87.40
2022-09-23T06:55:24.426Z,88.48
2022-09-23T06:57:50.986Z,87.55
2022-09-23T07:00:17.381Z,86.71
2022-09-23T07:02:43.836Z,86.41
2022-09-23T07:05:10.328Z,85.27
2022-09-23T07:07:38.151Z,85.88
2022-09-23T07:10:05.950Z,84.23
2022-09-23T07:12:33.503Z,82.64
2022-09-23T07:14:59.853Z,82.46
2022-09-23T07:17:26.618Z,82.77
2022-09-23T07:19:54.890Z,81.88
2022-09-23T07:22:22.131Z,80.84
2022-09-23T07:24:48.473Z,80.51
2022-09-23T07:27:18.665Z,78.88
2022-09-23T07:29:49.072Z,77.43
2022-09-23T07:32:16.568Z,78.08
2022-09-23T07:34:43.267Z,77.82
2022-09-23T07:37:10.527Z,73.24
2022-09-23T07:39:37.061Z,74.04
2022-09-23T07:42:05.157Z,70.34
2022-09-23T07:44:32.412Z,72.06
2022-09-23T07:46:59.193Z,72.29
2022-09-23T07:49:26.969Z,72.82
2022-09-23T07:51:53.970Z,71.58
2022-09-23T07:54:20.855Z,71.28
2022-09-23T07:56:47.478Z,70.79
2022-09-23T07:59:18.169Z,72.19
2022-09-23T08:01:48.310Z,70.80
2022-09-23T08:04:22.171Z,71.51
2022-09-23T08:06:51.931Z,72.68
2022-09-23T08:09:20.545Z,72.51
2022-09-23T08:11:47.781Z,71.02
2022-09-23T08:14:15.156Z,71.59
2022-09-23T08:16:42.015Z,71.35
2022-09-23T08:19:08.998Z,71.37
2022-09-23T08:21:35.589Z,70.39
2022-09-23T08:24:02.248Z,70.28
2022-09-23T08:26:28.827Z,71.47
2022-09-23T08:28:56.429Z,71.35
2022-09-23T08:31:23.641Z,69.47
2022-09-23T08:33:57.918Z,67.22
2022-09-23T08:36:25.690Z,64.72
2022-09-23T08:38:52.552Z,67.98
2022-09-23T08:41:57.552Z,68.52
2022-09-23T08:44:50.382Z,65.78
2022-09-23T08:47:22.475Z,69.71
2022-09-23T08:50:06.499Z,66.14
2022-09-23T08:52:40.147Z,66.15
2022-09-23T08:55:12.583Z,66.75
2022-09-23T08:58:24.809Z,68.38
2022-09-23T09:01:22.886Z,66.86
2022-09-23T09:03:54.000Z,67.03
2022-09-23T09:06:36.206Z,68.29
2022-09-23T09:09:23.980Z,68.63
2022-09-23T09:11:55.363Z,67.71
2022-09-23T09:14:55.867Z,68.21
2022-09-23T09:17:48.329Z,65.30
2022-09-23T09:20:47.106Z,66.72
2022-09-23T09:23:20.010Z,67.57
2022-09-23T09:25:50.708Z,66.73
2022-09-23T09:28:27.723Z,66.54
2022-09-23T09:31:05.729Z,69.03
2022-09-23T09:33:52.986Z,68.29
2022-09-23T09:36:57.904Z,67.81
2022-09-23T09:39:26.274Z,68.36
2022-09-23T09:41:59.437Z,66.67
2022-09-23T09:44:31.424Z,67.28
2022-09-23T09:47:15.329Z,68.41
2022-09-23T09:49:49.451Z,68.29
2022-09-23T09:52:25.951Z,68.25
2022-09-23T09:54:52.766Z,67.24
2022-09-23T09:57:35.061Z,66.93
2022-09-23T10:00:25.695Z,68.35
2022-09-23T10:03:03.691Z,67.33
2022-09-23T10:05:33.363Z,68.17
2022-09-23T10:08:18.474Z,67.23
2022-09-23T10:10:54.510Z,68.86
2022-09-23T10:13:24.886Z,64.96
2022-09-23T10:15:54.718Z,66.71
2022-09-23T10:18:25.385Z,67.04
2022-09-23T10:20:51.955Z,66.96
2022-09-23T10:23:24.797Z,67.78
2022-09-23T10:26:00.126Z,66.87
2022-09-23T10:28:44.011Z,67.03
2022-09-23T10:31:24.419Z,68.59
2022-09-23T10:34:02.086Z,66.57
2022-09-23T10:36:31.704Z,66.17
2022-09-23T10:39:17.944Z,67.58
2022-09-23T10:42:23.432Z,68.63
2022-09-23T10:45:42.707Z,66.49
2022-09-23T10:48:28.553Z,69.70
2022-09-23T10:50:56.146Z,68.68
2022-09-23T10:53:54.403Z,70.57
2022-09-23T10:56:26.748Z,66.48
2022-09-23T10:59:02.178Z,66.63
2022-09-23T11:02:00.571Z,66.22
2022-09-23T11:04:45.582Z,66.77
2022-09-23T11:07:39.798Z,68.18
2022-09-23T11:10:29.184Z,68.13
2022-09-23T11:13:28.785Z,69.38
2022-09-23T11:16:16.970Z,68.90
2022-09-23T11:18:54.289Z,67.47
2022-09-23T11:21:58.259Z,66.27
2022-09-23T11:24:49.248Z,68.40
2022-09-23T11:27:26.486Z,66.53
2022-09-23T11:30:10.230Z,65.69
2022-09-23T11:32:45.478Z,66.82
2022-09-23T11:35:21.213Z,66.86
2022-09-23T11:37:58.643Z,65.98
2022-09-23T11:40:34.322Z,65.53
2022-09-23T11:43:18.499Z,62.45
2022-09-23T11:45:51.449Z,63.44
2022-09-23T11:48:50.669Z,66.01
2022-09-23T11:51:26.999Z,66.26
2022-09-23T11:54:07.409Z,65.85
2022-09-23T11:56:45.754Z,64.27
2022-09-23T11:59:37.175Z,64.90
2022-09-23T12:02:20.371Z,64.12
2022-09-23T12:05:02.716Z,63.62
2022-09-23T12:07:44.136Z,66.44
2022-09-23T12:10:11.784Z,63.86
2022-09-23T12:13:06.450Z,62.79
2022-09-23T12:15:50.454Z,62.45
2022-09-23T12:18:23.377Z,60.79
2022-09-23T12:21:02.043Z,61.64
2022-09-23T12:23:36.849Z,62.36
2022-09-23T12:26:07.718Z,62.27
2022-09-23T12:28:40.962Z,61.74
2022-09-23T12:31:14.578Z,61.70
2022-09-23T12:33:52.224Z,60.72
2022-09-23T12:36:34.601Z,62.19
2022-09-23T12:39:17.302Z,63.03
2022-09-23T12:41:49.140Z,64.73
2022-09-23T12:44:28.286Z,65.41
2022-09-23T12:47:34.966Z,63.93
2022-09-23T12:50:01.376Z,62.20
2022-09-23T12:52:33.086Z,63.70
2022-09-23T12:55:22.025Z,62.25
2022-09-23T12:57:49.033Z,62.68
2022-09-23T13:00:16.057Z,65.40
2022-09-23T13:03:08.057Z,63.34
2022-09-23T13:06:10.981Z,62.33
2022-09-23T13:08:42.184Z,62.58
2022-09-23T13:11:21.909Z,65.08
2022-09-23T13:13:50.446Z,62.72
2022-09-23T13:16:32.949Z,62.61
2022-09-23T13:19:05.858Z,61.84
2022-09-23T13:21:44.786Z,61.72
2022-09-23T13:24:22.476Z,62.95
2022-09-23T13:26:57.222Z,61.33
2022-09-23T13:29:27.374Z,62.52
2022-09-23T13:31:57.726Z,64.14
2022-09-23T13:34:30.874Z,60.17
2022-09-23T13:36:57.255Z,60.97
2022-09-23T13:39:28.786Z,63.56
2022-09-23T13:42:01.733Z,61.79
2022-09-23T13:44:29.524Z,62.78
2022-09-23T13:46:59.550Z,62.25
2022-09-23T13:49:36.215Z,62.98
2022-09-23T13:52:03.625Z,63.55
2022-09-23T13:54:48.756Z,65.38
2022-09-23T13:57:42.609Z,64.73
2022-09-23T14:00:20.909Z,64.34
2022-09-23T14:02:47.621Z,65.37
2022-09-23T14:05:22.689Z,64.17
2022-09-23T14:07:50.723Z,65.63
2022-09-23T14:10:20.405Z,66.25
2022-09-23T14:12:49.339Z,64.06
2022-09-23T14:15:17.478Z,64.26
2022-09-23T14:17:53.047Z,63.40
2022-09-23T14:20:21.792Z,63.39
2022-09-23T14:22:48.247Z,63.72
2022-09-23T14:25:16.944Z,64.34
2022-09-23T14:27:44.916Z,65.34
2022-09-23T14:30:16.044Z,66.45
2022-09-23T14:32:42.554Z,65.32
2022-09-23T14:35:26.936Z,65.66
2022-09-23T14:38:16.755Z,65.49
2022-09-23T14:40:53.211Z,67.59
2022-09-23T14:43:29.092Z,68.03
2022-09-23T14:45:58.310Z,67.13
2022-09-23T14:48:30.883Z,65.61
2022-09-23T14:50:59.359Z,66.42
2022-09-23T14:53:34.684Z,66.11
2022-09-23T14:56:08.614Z,65.03
2022-09-23T14:58:52.369Z,64.94
2022-09-23T15:01:31.285Z,66.67
2022-09-23T15:03:59.348Z,67.43
2022-09-23T15:06:26.729Z,65.55
2022-09-23T15:08:55.558Z,65.70
2022-09-23T15:11:22.515Z,66.29
2022-09-23T15:13:52.315Z,66.37
2022-09-23T15:16:27.591Z,66.13
2022-09-23T15:18:57.596Z,66.83
2022-09-23T15:21:25.826Z,67.37
2022-09-23T15:23:57.329Z,68.23
2022-09-23T15:26:45.320Z,67.54
2022-09-23T15:29:11.682Z,68.11
2022-09-23T15:31:38.933Z,68.47
2022-09-23T15:34:05.502Z,69.28
2022-09-23T15:36:32.196Z,69.82
2022-09-23T15:39:04.200Z,69.36
2022-09-23T15:41:31.329Z,69.47
2022-09-23T15:43:58.173Z,70.51
2022-09-23T15:46:28.003Z,69.21
2022-09-23T15:49:04.585Z,69.68
2022-09-23T15:51:31.227Z,70.25
2022-09-23T15:53:57.666Z,71.12
2022-09-23T15:56:25.037Z,70.34
2022-09-23T15:58:51.403Z,70.63
2022-09-23T16:01:29.851Z,71.39
2022-09-23T16:03:56.439Z,70.61
2022-09-23T16:06:24.212Z,72.10
2022-09-23T16:08:52.124Z,71.60
2022-09-23T16:11:22.781Z,72.70
2022-09-23T16:13:49.135Z,72.74
2022-09-23T16:16:15.587Z,73.07
2022-09-23T16:18:43.742Z,72.39
2022-09-23T16:21:14.655Z,73.12
2022-09-23T16:23:43.824Z,72.82
2022-09-23T16:26:15.940Z,73.01
2022-09-23T16:28:43.504Z,73.75
2022-09-23T16:31:11.782Z,73.20
2022-09-23T16:33:38.917Z,73.72
2022-09-23T16:36:09.657Z,75.20
2022-09-23T16:38:36.031Z,75.56
2022-09-23T16:41:02.899Z,75.50
2022-09-23T16:43:32.568Z,75.70
2022-09-23T16:45:59.066Z,75.37
2022-09-23T16:48:25.491Z,77.97
2022-09-23T16:50:54.678Z,77.60
2022-09-23T16:53:21.092Z,77.06
2022-09-23T16:55:47.438Z,78.27
2022-09-23T16:58:13.795Z,78.41
2022-09-23T17:01:12.507Z,77.80
2022-09-23T17:03:41.579Z,77.45
2022-09-23T17:06:12.904Z,77.45
2022-09-23T17:08:40.725Z,78.94
2022-09-23T17:11:08.047Z,78.96
2022-09-23T17:13:34.771Z,78.76
2022-09-23T17:16:01.423Z,78.81
2022-09-23T17:18:27.861Z,79.33
2022-09-23T17:21:06.359Z,79.25
2022-09-23T17:23:35.128Z,79.11
2022-09-23T17:26:02.564Z,79.37
2022-09-23T17:28:28.986Z,79.83
2022-09-23T17:31:00.046Z,79.91
2022-09-23T17:33:28.286Z,80.65
2022-09-23T17:35:56.667Z,80.73
2022-09-23T17:38:28.621Z,81.01
2022-09-23T17:40:56.898Z,80.75
2022-09-23T17:43:25.967Z,80.16
2022-09-23T17:45:54.408Z,80.99
2022-09-23T17:48:22.276Z,81.91
2022-09-23T17:51:01.913Z,81.94
2022-09-23T17:53:33.325Z,82.55
2022-09-23T17:56:03.353Z,82.17
2022-09-23T17:58:32.254Z,83.73
2022-09-23T18:00:58.912Z,82.10
2022-09-23T18:03:26.926Z,83.19
2022-09-23T18:05:53.271Z,83.18
2022-09-23T18:08:20.325Z,83.27
2022-09-23T18:10:47.165Z,83.37
2022-09-23T18:13:13.531Z,83.28
2022-09-23T18:15:40.603Z,83.63
2022-09-23T18:18:07.244Z,83.55
2022-09-23T18:20:33.996Z,85.03
2022-09-23T18:23:00.311Z,85.24
2022-09-23T18:25:39.237Z,85.63
2022-09-23T18:28:06.124Z,85.21
2022-09-23T18:30:33.466Z,84.94
2022-09-23T18:33:00.024Z,85.59
2022-09-23T18:35:26.456Z,85.65
2022-09-23T18:37:52.813Z,86.21
2022-09-23T18:40:19.247Z,86.69
2022-09-23T18:42:45.634Z,87.36
2022-09-23T18:45:12.013Z,86.76
2022-09-23T18:47:57.445Z,86.99
2022-09-23T18:50:49.754Z,87.18
2022-09-23T18:53:16.079Z,87.86
2022-09-23T18:55:42.475Z,88.13
2022-09-23T18:58:10.314Z,88.27
2022-09-23T19:00:36.827Z,88.18
2022-09-23T19:03:03.577Z,88.35
2022-09-23T19:05:34.081Z,88.14
2022-09-23T19:08:00.772Z,88.24
2022-09-23T19:10:27.185Z,88.88
2022-09-23T19:12:53.521Z,88.64
2022-09-23T19:15:19.921Z,88.34
2022-09-23T19:17:46.733Z,88.36
2022-09-23T19:20:13.167Z,88.20
2022-09-23T19:22:39.876Z,88.96
2022-09-23T19:25:07.588Z,89.17
2022-09-23T19:27:35.752Z,88.87
2022-09-23T19:30:02.301Z,87.80
2022-09-23T19:32:28.950Z,88.11
2022-09-23T19:34:55.312Z,87.97
2022-09-23T19:37:21.674Z,88.55
2022-09-23T19:39:48.222Z,89.15
2022-09-23T19:42:14.683Z,89.36
2022-09-23T19:44:41.045Z,89.60
2022-09-23T19:47:07.481Z,89.22
2022-09-23T19:49:33.855Z,89.80
2022-09-23T19:52:00.383Z,89.97
2022-09-23T19:54:27.326Z,88.92
2022-09-23T19:56:54.211Z,89.68
2022-09-23T19:59:20.580Z,90.18
2022-09-23T20:01:48.268Z,90.18
2022-09-23T20:04:15.694Z,90.30
2022-09-23T20:06:42.194Z,90.59
2022-09-23T20:09:08.650Z,91.19
2022-09-23T20:11:35.072Z,91.82
2022-09-23T20:14:03.215Z,91.34
2022-09-23T20:16:32.716Z,91.57
2022-09-23T20:19:00.622Z,91.78
2022-09-23T20:21:28.371Z,91.38
2022-09-23T20:23:55.089Z,91.80
2022-09-23T20:26:40.026Z,91.85
2022-09-23T20:29:06.569Z,92.25
2022-09-23T20:31:34.463Z,92.11
2022-09-23T20:34:05.286Z,91.99
2022-09-23T20:36:32.854Z,92.05
2022-09-23T20:39:01.292Z,92.45
2022-09-23T20:41:29.659Z,92.62
2022-09-23T20:44:00.515Z,92.95
2022-09-23T20:46:28.413Z,92.73
2022-09-23T20:48:56.508Z,92.86
2022-09-23T20:51:24.586Z,93.31
2022-09-23T20:53:54.602Z,93.41
2022-09-23T20:56:21.853Z,93.88
2022-09-23T20:58:50.282Z,93.66
2022-09-23T21:01:17.491Z,94.14
2022-09-23T21:03:46.022Z,94.31
2022-09-23T21:06:14.852Z,94.13
2022-09-23T21:08:42.144Z,93.98
2022-09-23T21:11:11.944Z,94.75
2022-09-23T21:13:38.730Z,94.67
2022-09-23T21:16:08.115Z,94.33
2022-09-23T21:18:37.283Z,94.62
2022-09-23T21:21:05.210Z,94.67
2022-09-23T21:23:33.980Z,94.79
2022-09-23T21:26:04.177Z,94.65
2022-09-23T21:28:32.291Z,95.31
2022-09-23T21:31:04.497Z,95.17
2022-09-23T21:33:31.287Z,95.72
2022-09-23T21:36:03.403Z,95.76
2022-09-23T21:38:39.184Z,96.00
2022-09-23T21:41:08.903Z,96.29
2022-09-23T21:43:38.383Z,96.83
2022-09-23T21:46:07.258Z,96.16
2022-09-23T21:48:35.523Z,96.19
2022-09-23T21:51:05.073Z,96.33
2022-09-23T21:53:33.094Z,96.50
2022-09-23T21:56:08.630Z,95.60
2022-09-23T21:58:36.842Z,96.05
2022-09-23T22:01:26.744Z,96.41
2022-09-23T22:03:58.275Z,96.52
2022-09-23T22:06:27.344Z,95.98
2022-09-23T22:08:58.951Z,95.86
2022-09-23T22:11:46.345Z,96.22
2022-09-23T22:14:14.227Z,96.62
2022-09-23T22:16:41.778Z,97.25
2022-09-23T22:19:09.717Z,96.47
2022-09-23T22:21:38.655Z,96.19
2022-09-23T22:24:07.302Z,96.45
2022-09-23T22:26:44.333Z,97.12
2022-09-23T22:29:31.856Z,97.23
2022-09-23T22:32:18.226Z,97.34
2022-09-23T22:34:50.619Z,97.44
2022-09-23T22:37:25.612Z,97.82
2022-09-23T22:39:52.055Z,97.45
2022-09-23T22:42:21.136Z,97.19
2022-09-23T22:44:48.084Z,97.67
2022-09-23T22:47:14.750Z,96.94
2022-09-23T22:49:42.012Z,96.35
2022-09-23T22:52:09.217Z,96.30
2022-09-23T22:54:36.965Z,96.30
2022-09-23T22:57:07.821Z,97.22
2022-09-23T22:59:37.161Z,96.83
2022-09-23T23:02:05.001Z,96.65
2022-09-23T23:04:31.582Z,96.75
2022-09-23T23:06:58.746Z,96.19
2022-09-23T23:09:25.238Z,96.40
2022-09-23T23:11:51.594Z,95.97
2022-09-23T23:14:18.864Z,96.64
2022-09-23T23:16:46.142Z,96.65
2022-09-23T23:19:16.655Z,97.27
2022-09-23T23:21:44.644Z,97.38
2022-09-23T23:24:20.151Z,96.85
2022-09-23T23:26:47.355Z,97.58
2022-09-23T23:29:15.929Z,97.26
2022-09-23T23:31:42.742Z,96.80
2022-09-23T23:34:14.992Z,97.02
2022-09-23T23:36:41.879Z,96.34
2022-09-23T23:39:08.509Z,95.95
2022-09-23T23:41:35.004Z,96.60
2022-09-23T23:44:01.751Z,95.92
2022-09-23T23:46:30.715Z,95.76
2022-09-23T23:48:57.893Z,96.01
2022-09-23T23:51:27.854Z,95.66
2022-09-23T23:53:55.418Z,95.09
2022-09-23T23:56:25.800Z,94.41
2022-09-23T23:58:59.714Z,94.98
